ENFL/FRO METAR and TAF weather

Enter ICAO airport designator
Station Type Date Time Source
ENFL METAR 2020/02/29 02:20 UTC NOAA

ENFL 290220Z AUTO 13009KT 9999NDV NCD 00/M04 Q0996


Station Type Date Time Source
ENFL Decoded METAR 2020/02/29 02:20 UTC NOAA

Floro, Norway (ENFL) 61-35N 005-02E 9M
Feb 28, 2020 - 09:20 PM EST / 2020.02.29 0220 UTC
Wind: from the SE (130 degrees) at 10 MPH (9 KT):0
Temperature: 32 F (0 C)
Windchill: 23 F (-5 C):1
Dew Point: 24 F (-4 C)
Relative Humidity: 74%
Pressure (altimeter): 29.41 in. Hg (0996 hPa)
ob: ENFL 290220Z AUTO 13009KT 9999NDV NCD 00/M04 Q0996
cycle: 2

Station Type Date Time Source
ENFL TAF 2010/02/05 07:50 UTC NOAA

METAR ENFL 050750Z 16019KT 140V200 9999 FEW015 SCT030 BKN055 03/M03 Q1011

Example: see airport list